Arthur Maersk — OXJH2 — position and weather

sailwx.info

Track history (hours):
 
Tides and Currents Weather Stations Pressure Air Temp Water Temp Dewpoint Dewpoint Depression Visibility Wind Speed Wind Dir Waves Ship Positions

Arthur Maersk

Last reported at 2015-Apr-12 09:15 UTC. Time now 2015-Apr-27 13:36 UTC.
Position N 36°29' E 014°31'.
Warning: this ship's position is 15 days out of date.

Length 352 m; draft 14 m.

Type: Cargo ship. MMSI: 220221000.

Date/timePositionNaut miles runAvg speedWind from/ knotsBaromVisibWave heightAir tempDewpointWater temp
2015-Apr-12 09:15N 36°29' E 014°31'1217.2
2015-Apr-12 08:34N 36°32' E 014°17'1716.8
2015-Apr-12 07:34N 36°38' E 013°57'1717.2
2015-Apr-12 06:34N 36°43' E 013°36'3817.6
2015-Apr-12 04:24N 36°55' E 012°51'2217.4
2015-Apr-12 03:07N 37°02' E 012°25'1017.3
2015-Apr-12 02:31N 37°06' E 012°12'5416.8
2015-Apr-11 23:20N 37°22' E 011°08'11016.2
2015-Apr-11 16:30N 37°20' E 008°50'3716.3
2015-Apr-11 14:16N 37°18' E 008°04'7816.6
2015-Apr-11 09:33N 37°19' E 006°25'10818.0
2015-Apr-11 03:33N 37°09' E 004°10'15816.7
2015-Apr-10 18:06N 36°46' E 000°55'917.2
2015-Apr-10 17:33N 36°44' E 000°43'29816.5
2015-Apr-09 23:33N 35°58' W 005°22'3617.8
2015-Apr-09 21:31N 35°52' W 006°06'  
2015-Apr-07 16:33N 38°18' W 024°11'1616.0
2015-Apr-07 15:33N 38°21' W 024°31'1615.9
2015-Apr-07 14:34N 38°24' W 024°50'1615.8
2015-Apr-07 13:33N 38°24' W 025°11'1615.7
2015-Apr-07 12:33N 38°24' W 025°31'1615.8
2015-Apr-07 11:34N 38°23' W 025°51'1615.6
2015-Apr-07 10:34N 38°22' W 026°10'1515.4
2015-Apr-07 09:33N 38°21' W 026°30'1515.4
2015-Apr-07 08:34N 38°20' W 026°50'1515.3
2015-Apr-07 07:33N 38°19' W 027°09'1615.7
2015-Apr-07 06:34N 38°18' W 027°29'1616.0
2015-Apr-07 05:33N 38°17' W 027°49'1716.5
2015-Apr-07 04:33N 38°16' W 028°11'1716.5
2015-Apr-07 03:33N 38°15' W 028°32'1616.1
2015-Apr-07 02:33N 38°14' W 028°52'1616.0
2015-Apr-07 01:33N 38°13' W 029°12'1615.8
2015-Apr-07 00:33N 38°12' W 029°32'1615.6
2015-Apr-06 23:33N 38°11' W 029°52'1515.4
2015-Apr-06 22:33N 38°10' W 030°12'1615.8
2015-Apr-06 21:32N 38°09' W 030°32'1715.8
2015-Apr-06 20:29N 38°09' W 030°53'5015.9
2015-Apr-06 17:19N 38°10' W 031°57'  
Track history (hours):
 
Tides and Currents Weather Stations Pressure Air Temp Water Temp Dewpoint Dewpoint Depression Visibility Wind Speed Wind Dir Waves Ship Positions

Arthur Maersk

Last reported at 2015-Apr-12 09:15 UTC. Time now 2015-Apr-27 13:36 UTC.
Position N 36°29' E 014°31'.
Warning: this ship's position is 15 days out of date.

Length 352 m; draft 14 m.

Type: Cargo ship. MMSI: 220221000.

Date/timePositionNaut miles runAvg speedWind from/ knotsBaromVisibWave heightAir tempDewpointWater temp
2015-Apr-12 09:15N 36°29' E 014°31'1217.2
2015-Apr-12 08:34N 36°32' E 014°17'1716.8
2015-Apr-12 07:34N 36°38' E 013°57'1717.2
2015-Apr-12 06:34N 36°43' E 013°36'3817.6
2015-Apr-12 04:24N 36°55' E 012°51'2217.4
2015-Apr-12 03:07N 37°02' E 012°25'1017.3
2015-Apr-12 02:31N 37°06' E 012°12'5416.8
2015-Apr-11 23:20N 37°22' E 011°08'11016.2
2015-Apr-11 16:30N 37°20' E 008°50'3716.3
2015-Apr-11 14:16N 37°18' E 008°04'7816.6
2015-Apr-11 09:33N 37°19' E 006°25'10818.0
2015-Apr-11 03:33N 37°09' E 004°10'15816.7
2015-Apr-10 18:06N 36°46' E 000°55'917.2
2015-Apr-10 17:33N 36°44' E 000°43'29816.5
2015-Apr-09 23:33N 35°58' W 005°22'3617.8
2015-Apr-09 21:31N 35°52' W 006°06'  
2015-Apr-07 16:33N 38°18' W 024°11'1616.0
2015-Apr-07 15:33N 38°21' W 024°31'1615.9
2015-Apr-07 14:34N 38°24' W 024°50'1615.8
2015-Apr-07 13:33N 38°24' W 025°11'1615.7
2015-Apr-07 12:33N 38°24' W 025°31'1615.8
2015-Apr-07 11:34N 38°23' W 025°51'1615.6
2015-Apr-07 10:34N 38°22' W 026°10'1515.4
2015-Apr-07 09:33N 38°21' W 026°30'1515.4
2015-Apr-07 08:34N 38°20' W 026°50'1515.3
2015-Apr-07 07:33N 38°19' W 027°09'1615.7
2015-Apr-07 06:34N 38°18' W 027°29'1616.0
2015-Apr-07 05:33N 38°17' W 027°49'1716.5
2015-Apr-07 04:33N 38°16' W 028°11'1716.5
2015-Apr-07 03:33N 38°15' W 028°32'1616.1
2015-Apr-07 02:33N 38°14' W 028°52'1616.0
2015-Apr-07 01:33N 38°13' W 029°12'1615.8
2015-Apr-07 00:33N 38°12' W 029°32'1615.6
2015-Apr-06 23:33N 38°11' W 029°52'1515.4
2015-Apr-06 22:33N 38°10' W 030°12'1615.8
2015-Apr-06 21:32N 38°09' W 030°32'1715.8
2015-Apr-06 20:29N 38°09' W 030°53'5015.9
2015-Apr-06 17:19N 38°10' W 031°57'  

Dump ship's entire track history